Track Иванова Наталья

Time Latitude Longitude Accuracy (66% radius in meters) Altitude (meters) Speed (km/hour) Bearing (degrees) Battery (%) GPS flag
05:03:09 55.996993 92.785400 0 0 0 0 1 delete
05:03:01 55.997057 92.785470 0 0 0 0 1 delete
05:02:57 55.997087 92.785488 0 0 0 0 1 delete
05:02:52 55.997283 92.785412 0 0 0 0 1 delete
05:02:47 55.997503 92.785360 0 0 0 0 1 delete
05:02:39 55.997674 92.785466 0 0 0 0 1 delete
05:02:38 55.997709 92.785510 0 0 0 0 1 delete
05:02:37 55.997747 92.785552 0 0 0 0 1 delete
05:02:32 55.997913 92.785748 0 0 0 0 1 delete
05:02:27 55.998107 92.785898 0 0 0 0 1 delete
05:02:21 55.998266 92.786058 0 0 0 0 1 delete
05:02:14 55.998402 92.786292 0 0 0 0 1 delete
05:02:12 55.998419 92.786392 0 0 0 0 1 delete
05:02:11 55.998425 92.786445 0 0 0 0 1 delete
05:02:09 55.998431 92.786557 0 0 0 0 1 delete
05:02:03 55.998460 92.786888 0 0 0 0 1 delete
05:01:57 55.998507 92.787220 0 0 0 0 1 delete
05:01:55 55.998529 92.787332 0 0 0 0 1 delete
05:01:49 55.998562 92.787445 0 0 0 0 1 delete
05:01:43 55.998656 92.787728 0 0 0 0 1 delete
05:01:42 55.998671 92.787789 0 0 0 0 1 delete
05:01:36 55.998737 92.788037 0 0 0 0 1 delete
05:01:29 55.998795 92.787995 0 0 0 0 1 delete
05:01:28 55.998824 92.787943 0 0 0 0 1 delete
05:01:26 55.998876 92.787825 0 0 0 0 1 delete
05:01:21 55.999001 92.787533 0 0 0 0 1 delete
05:01:16 55.998999 92.787144 0 0 0 0 1 delete
05:01:11 55.998997 92.786816 0 0 0 0 1 delete
05:01:05 55.998979 92.786474 0 0 0 0 1 delete
05:00:59 55.998960 92.786105 0 0 0 0 1 delete
05:00:53 55.998962 92.785747 0 0 0 0 1 delete
05:00:52 55.998958 92.785683 0 0 0 0 1 delete
05:00:48 55.998957 92.785406 0 0 0 0 1 delete
05:00:42 55.998863 92.785064 0 0 0 0 1 delete
05:00:37 55.998802 92.784763 0 0 0 0 1 delete
05:00:31 55.998771 92.784411 0 0 0 0 1 delete
05:00:30 55.998766 92.784369 0 0 0 0 1 delete
05:00:26 55.998753 92.784159 0 0 0 0 1 delete
05:00:19 55.998714 92.783803 0 0 0 0 1 delete
05:00:09 55.998673 92.783588 0 0 0 0 1 delete
05:00:00 55.998715 92.783269 0 0 0 0 1 delete
04:59:57 55.998722 92.783080 0 0 0 0 1 delete
04:59:52 55.998704 92.782786 0 0 0 0 1 delete
04:59:51 55.998698 92.782721 0 0 0 0 1 delete
04:59:46 55.998681 92.782388 0 0 0 0 1 delete
04:59:42 55.998674 92.782105 0 0 0 0 1 delete
04:59:40 55.998671 92.781964 0 0 0 0 1 delete
04:59:39 55.998670 92.781900 0 0 0 0 1 delete
04:59:35 55.998653 92.781627 0 0 0 0 1 delete
04:59:33 55.998644 92.781498 0 0 0 0 1 delete